sensor_id;sensor_type;location;lat;lon;timestamp;P1;durP1;ratioP1;P2;durP2;ratioP2
8610;SDS011;4343;53.648;10.098;2023-08-30T00:00:17;2.35;;;2.25;;
8610;SDS011;4343;53.648;10.098;2023-08-30T00:02:43;2.33;;;2.22;;
8610;SDS011;4343;53.648;10.098;2023-08-30T00:05:09;2.72;;;2.63;;
8610;SDS011;4343;53.648;10.098;2023-08-30T00:07:35;2.10;;;2.10;;
8610;SDS011;4343;53.648;10.098;2023-08-30T00:10:01;2.15;;;2.05;;
8610;SDS011;4343;53.648;10.098;2023-08-30T00:12:27;2.42;;;2.33;;
8610;SDS011;4343;53.648;10.098;2023-08-30T00:14:53;2.40;;;2.30;;
8610;SDS011;4343;53.648;10.098;2023-08-30T00:17:19;2.50;;;2.03;;
8610;SDS011;4343;53.648;10.098;2023-08-30T00:19:45;2.42;;;2.33;;
8610;SDS011;4343;53.648;10.098;2023-08-30T00:22:10;2.40;;;2.30;;
8610;SDS011;4343;53.648;10.098;2023-08-30T00:24:37;2.50;;;2.40;;
8610;SDS011;4343;53.648;10.098;2023-08-30T00:27:02;2.40;;;2.30;;
8610;SDS011;4343;53.648;10.098;2023-08-30T00:29:28;2.50;;;2.40;;
8610;SDS011;4343;53.648;10.098;2023-08-30T00:31:54;2.10;;;2.00;;
8610;SDS011;4343;53.648;10.098;2023-08-30T00:34:20;2.55;;;2.45;;
8610;SDS011;4343;53.648;10.098;2023-08-30T00:36:45;2.50;;;2.30;;
8610;SDS011;4343;53.648;10.098;2023-08-30T00:39:11;2.25;;;2.20;;
8610;SDS011;4343;53.648;10.098;2023-08-30T00:41:36;2.20;;;2.10;;
8610;SDS011;4343;53.648;10.098;2023-08-30T00:44:02;2.22;;;2.13;;
8610;SDS011;4343;53.648;10.098;2023-08-30T00:46:28;2.10;;;2.10;;
8610;SDS011;4343;53.648;10.098;2023-08-30T00:48:54;2.30;;;2.20;;
8610;SDS011;4343;53.648;10.098;2023-08-30T00:51:20;2.05;;;1.95;;
8610;SDS011;4343;53.648;10.098;2023-08-30T00:53:46;1.98;;;1.98;;
8610;SDS011;4343;53.648;10.098;2023-08-30T00:56:12;2.17;;;2.08;;
8610;SDS011;4343;53.648;10.098;2023-08-30T00:58:38;2.45;;;2.30;;
8610;SDS011;4343;53.648;10.098;2023-08-30T01:01:04;2.40;;;2.30;;
8610;SDS011;4343;53.648;10.098;2023-08-30T01:03:33;2.15;;;2.05;;
8610;SDS011;4343;53.648;10.098;2023-08-30T01:06:03;2.22;;;2.13;;
8610;SDS011;4343;53.648;10.098;2023-08-30T01:08:28;2.38;;;2.28;;
8610;SDS011;4343;53.648;10.098;2023-08-30T01:13:30;2.05;;;1.98;;
8610;SDS011;4343;53.648;10.098;2023-08-30T01:15:58;1.80;;;1.70;;
8610;SDS011;4343;53.648;10.098;2023-08-30T01:18:26;2.08;;;1.98;;
8610;SDS011;4343;53.648;10.098;2023-08-30T01:20:52;2.28;;;1.88;;
8610;SDS011;4343;53.648;10.098;2023-08-30T01:23:24;2.05;;;1.95;;
8610;SDS011;4343;53.648;10.098;2023-08-30T01:26:04;2.20;;;2.10;;
8610;SDS011;4343;53.648;10.098;2023-08-30T01:28:36;2.03;;;2.03;;
8610;SDS011;4343;53.648;10.098;2023-08-30T01:31:02;2.40;;;2.28;;
8610;SDS011;4343;53.648;10.098;2023-08-30T01:33:31;2.13;;;2.10;;
8610;SDS011;4343;53.648;10.098;2023-08-30T01:35:58;4.63;;;2.53;;
8610;SDS011;4343;53.648;10.098;2023-08-30T01:38:28;2.10;;;2.10;;
8610;SDS011;4343;53.648;10.098;2023-08-30T01:40:54;2.53;;;2.42;;
8610;SDS011;4343;53.648;10.098;2023-08-30T01:43:21;2.60;;;2.40;;
8610;SDS011;4343;53.648;10.098;2023-08-30T01:45:48;2.20;;;2.10;;
8610;SDS011;4343;53.648;10.098;2023-08-30T01:48:14;2.47;;;2.30;;
8610;SDS011;4343;53.648;10.098;2023-08-30T01:50:42;2.72;;;2.33;;
8610;SDS011;4343;53.648;10.098;2023-08-30T01:53:09;2.85;;;2.70;;
8610;SDS011;4343;53.648;10.098;2023-08-30T01:55:36;2.60;;;2.50;;
8610;SDS011;4343;53.648;10.098;2023-08-30T01:58:04;2.30;;;2.10;;
8610;SDS011;4343;53.648;10.098;2023-08-30T02:00:30;2.55;;;2.45;;
8610;SDS011;4343;53.648;10.098;2023-08-30T02:02:56;2.20;;;2.10;;
8610;SDS011;4343;53.648;10.098;2023-08-30T02:05:22;1.90;;;1.90;;
8610;SDS011;4343;53.648;10.098;2023-08-30T02:07:53;2.05;;;1.95;;
8610;SDS011;4343;53.648;10.098;2023-08-30T02:10:31;2.40;;;2.30;;
8610;SDS011;4343;53.648;10.098;2023-08-30T02:13:00;2.33;;;2.22;;
8610;SDS011;4343;53.648;10.098;2023-08-30T02:15:28;2.58;;;2.47;;
8610;SDS011;4343;53.648;10.098;2023-08-30T02:17:55;2.50;;;2.40;;
8610;SDS011;4343;53.648;10.098;2023-08-30T02:20:21;2.55;;;2.45;;
8610;SDS011;4343;53.648;10.098;2023-08-30T02:22:47;2.50;;;2.38;;
8610;SDS011;4343;53.648;10.098;2023-08-30T02:25:13;2.20;;;2.13;;
8610;SDS011;4343;53.648;10.098;2023-08-30T02:27:38;2.13;;;2.08;;
8610;SDS011;4343;53.648;10.098;2023-08-30T02:30:04;2.67;;;2.10;;
8610;SDS011;4343;53.648;10.098;2023-08-30T02:32:30;2.30;;;2.20;;
8610;SDS011;4343;53.648;10.098;2023-08-30T02:34:56;2.40;;;2.30;;
8610;SDS011;4343;53.648;10.098;2023-08-30T02:37:22;2.42;;;2.33;;
8610;SDS011;4343;53.648;10.098;2023-08-30T02:39:48;2.38;;;2.28;;
8610;SDS011;4343;53.648;10.098;2023-08-30T02:42:13;2.95;;;2.85;;
8610;SDS011;4343;53.648;10.098;2023-08-30T02:44:39;2.80;;;2.70;;
8610;SDS011;4343;53.648;10.098;2023-08-30T02:47:05;3.10;;;3.00;;
8610;SDS011;4343;53.648;10.098;2023-08-30T02:49:30;2.97;;;2.80;;
8610;SDS011;4343;53.648;10.098;2023-08-30T02:51:56;2.95;;;2.75;;
8610;SDS011;4343;53.648;10.098;2023-08-30T02:54:21;2.65;;;2.50;;
8610;SDS011;4343;53.648;10.098;2023-08-30T02:56:48;2.63;;;2.47;;
8610;SDS011;4343;53.648;10.098;2023-08-30T02:59:14;2.90;;;2.80;;
8610;SDS011;4343;53.648;10.098;2023-08-30T03:01:39;2.90;;;2.80;;
8610;SDS011;4343;53.648;10.098;2023-08-30T03:04:05;2.60;;;2.50;;
8610;SDS011;4343;53.648;10.098;2023-08-30T03:06:34;2.63;;;2.42;;
8610;SDS011;4343;53.648;10.098;2023-08-30T03:09:00;2.72;;;2.63;;
8610;SDS011;4343;53.648;10.098;2023-08-30T03:11:27;2.70;;;2.60;;
8610;SDS011;4343;53.648;10.098;2023-08-30T03:13:53;2.75;;;2.65;;
8610;SDS011;4343;53.648;10.098;2023-08-30T03:16:19;2.88;;;2.78;;
8610;SDS011;4343;53.648;10.098;2023-08-30T03:18:44;2.53;;;2.42;;
8610;SDS011;4343;53.648;10.098;2023-08-30T03:21:11;3.25;;;3.05;;
8610;SDS011;4343;53.648;10.098;2023-08-30T03:23:37;2.95;;;2.85;;
8610;SDS011;4343;53.648;10.098;2023-08-30T03:26:10;2.88;;;2.78;;
8610;SDS011;4343;53.648;10.098;2023-08-30T03:28:37;2.70;;;2.60;;
8610;SDS011;4343;53.648;10.098;2023-08-30T03:31:10;2.95;;;2.70;;
8610;SDS011;4343;53.648;10.098;2023-08-30T03:33:37;2.55;;;2.45;;
8610;SDS011;4343;53.648;10.098;2023-08-30T03:36:02;3.30;;;3.10;;
8610;SDS011;4343;53.648;10.098;2023-08-30T03:38:28;3.47;;;3.15;;
8610;SDS011;4343;53.648;10.098;2023-08-30T03:40:54;3.20;;;3.00;;
8610;SDS011;4343;53.648;10.098;2023-08-30T03:43:19;3.10;;;2.95;;
8610;SDS011;4343;53.648;10.098;2023-08-30T03:45:45;3.03;;;2.90;;
8610;SDS011;4343;53.648;10.098;2023-08-30T03:48:11;3.28;;;2.97;;
8610;SDS011;4343;53.648;10.098;2023-08-30T03:50:36;2.95;;;2.85;;
8610;SDS011;4343;53.648;10.098;2023-08-30T03:53:02;3.53;;;3.33;;
8610;SDS011;4343;53.648;10.098;2023-08-30T03:55:27;3.42;;;3.22;;
8610;SDS011;4343;53.648;10.098;2023-08-30T03:57:53;3.05;;;2.95;;
8610;SDS011;4343;53.648;10.098;2023-08-30T04:00:18;3.10;;;2.92;;
8610;SDS011;4343;53.648;10.098;2023-08-30T04:02:44;3.58;;;3.28;;
8610;SDS011;4343;53.648;10.098;2023-08-30T04:05:10;3.15;;;3.05;;
8610;SDS011;4343;53.648;10.098;2023-08-30T04:07:35;4.88;;;4.35;;
8610;SDS011;4343;53.648;10.098;2023-08-30T04:10:01;3.22;;;3.13;;
8610;SDS011;4343;53.648;10.098;2023-08-30T04:12:31;3.35;;;3.15;;
8610;SDS011;4343;53.648;10.098;2023-08-30T04:14:56;4.05;;;3.75;;
8610;SDS011;4343;53.648;10.098;2023-08-30T04:17:22;3.72;;;3.47;;
8610;SDS011;4343;53.648;10.098;2023-08-30T04:19:51;3.60;;;3.30;;
8610;SDS011;4343;53.648;10.098;2023-08-30T04:22:16;3.35;;;3.25;;
8610;SDS011;4343;53.648;10.098;2023-08-30T04:24:43;3.30;;;3.10;;
8610;SDS011;4343;53.648;10.098;2023-08-30T04:27:08;3.80;;;3.50;;
8610;SDS011;4343;53.648;10.098;2023-08-30T04:29:34;3.80;;;3.60;;
8610;SDS011;4343;53.648;10.098;2023-08-30T04:31:59;3.97;;;3.60;;
8610;SDS011;4343;53.648;10.098;2023-08-30T04:34:25;3.63;;;3.42;;
8610;SDS011;4343;53.648;10.098;2023-08-30T04:36:51;3.95;;;3.65;;
8610;SDS011;4343;53.648;10.098;2023-08-30T04:39:16;3.67;;;3.47;;
8610;SDS011;4343;53.648;10.098;2023-08-30T04:41:42;4.13;;;3.80;;
8610;SDS011;4343;53.648;10.098;2023-08-30T04:44:07;4.05;;;3.85;;
8610;SDS011;4343;53.648;10.098;2023-08-30T04:46:33;3.85;;;3.65;;
8610;SDS011;4343;53.648;10.098;2023-08-30T04:48:58;4.00;;;3.80;;
8610;SDS011;4343;53.648;10.098;2023-08-30T04:51:24;4.18;;;3.97;;
8610;SDS011;4343;53.648;10.098;2023-08-30T04:53:49;4.40;;;4.05;;
8610;SDS011;4343;53.648;10.098;2023-08-30T04:56:15;4.68;;;4.38;;
8610;SDS011;4343;53.648;10.098;2023-08-30T04:58:43;4.03;;;3.83;;
8610;SDS011;4343;53.648;10.098;2023-08-30T05:01:08;5.03;;;4.63;;
8610;SDS011;4343;53.648;10.098;2023-08-30T05:03:36;4.30;;;4.00;;
8610;SDS011;4343;53.648;10.098;2023-08-30T05:06:01;4.60;;;4.35;;
8610;SDS011;4343;53.648;10.098;2023-08-30T05:08:27;4.18;;;3.97;;
8610;SDS011;4343;53.648;10.098;2023-08-30T05:10:53;4.45;;;4.15;;
8610;SDS011;4343;53.648;10.098;2023-08-30T05:13:19;4.97;;;4.70;;
8610;SDS011;4343;53.648;10.098;2023-08-30T05:15:45;5.13;;;4.82;;
8610;SDS011;4343;53.648;10.098;2023-08-30T05:18:10;4.70;;;4.50;;
8610;SDS011;4343;53.648;10.098;2023-08-30T05:20:36;5.82;;;5.43;;
8610;SDS011;4343;53.648;10.098;2023-08-30T05:23:02;5.00;;;4.80;;
8610;SDS011;4343;53.648;10.098;2023-08-30T05:25:27;5.38;;;4.97;;
8610;SDS011;4343;53.648;10.098;2023-08-30T05:27:53;4.93;;;4.72;;
8610;SDS011;4343;53.648;10.098;2023-08-30T05:30:19;5.90;;;5.50;;
8610;SDS011;4343;53.648;10.098;2023-08-30T05:32:45;6.13;;;5.55;;
8610;SDS011;4343;53.648;10.098;2023-08-30T05:35:10;5.15;;;4.95;;
8610;SDS011;4343;53.648;10.098;2023-08-30T05:37:36;6.25;;;5.85;;
8610;SDS011;4343;53.648;10.098;2023-08-30T05:40:01;5.60;;;5.28;;
8610;SDS011;4343;53.648;10.098;2023-08-30T05:42:29;6.28;;;5.78;;
8610;SDS011;4343;53.648;10.098;2023-08-30T05:44:54;6.28;;;5.88;;
8610;SDS011;4343;53.648;10.098;2023-08-30T05:47:20;6.28;;;5.78;;
8610;SDS011;4343;53.648;10.098;2023-08-30T05:49:46;6.40;;;6.00;;
8610;SDS011;4343;53.648;10.098;2023-08-30T05:52:12;6.35;;;5.95;;
8610;SDS011;4343;53.648;10.098;2023-08-30T05:54:37;6.47;;;5.85;;
8610;SDS011;4343;53.648;10.098;2023-08-30T05:57:03;6.20;;;5.80;;
8610;SDS011;4343;53.648;10.098;2023-08-30T05:59:29;5.50;;;5.20;;
8610;SDS011;4343;53.648;10.098;2023-08-30T06:01:54;5.78;;;5.47;;
8610;SDS011;4343;53.648;10.098;2023-08-30T06:04:20;6.00;;;5.50;;
8610;SDS011;4343;53.648;10.098;2023-08-30T06:06:45;6.22;;;5.72;;
8610;SDS011;4343;53.648;10.098;2023-08-30T06:09:11;5.80;;;5.40;;
8610;SDS011;4343;53.648;10.098;2023-08-30T06:11:39;5.90;;;5.50;;
8610;SDS011;4343;53.648;10.098;2023-08-30T06:14:05;6.03;;;5.63;;
8610;SDS011;4343;53.648;10.098;2023-08-30T06:16:31;5.35;;;5.05;;
8610;SDS011;4343;53.648;10.098;2023-08-30T06:18:56;5.97;;;5.47;;
8610;SDS011;4343;53.648;10.098;2023-08-30T06:21:24;5.35;;;5.05;;
8610;SDS011;4343;53.648;10.098;2023-08-30T06:23:50;4.85;;;4.65;;
8610;SDS011;4343;53.648;10.098;2023-08-30T06:26:15;4.72;;;4.53;;
8610;SDS011;4343;53.648;10.098;2023-08-30T06:28:41;5.05;;;4.78;;
8610;SDS011;4343;53.648;10.098;2023-08-30T06:31:07;5.30;;;5.00;;
8610;SDS011;4343;53.648;10.098;2023-08-30T06:33:33;5.72;;;5.22;;
8610;SDS011;4343;53.648;10.098;2023-08-30T06:35:59;5.47;;;5.18;;
8610;SDS011;4343;53.648;10.098;2023-08-30T06:38:24;5.43;;;5.03;;
8610;SDS011;4343;53.648;10.098;2023-08-30T06:40:50;5.00;;;4.70;;
8610;SDS011;4343;53.648;10.098;2023-08-30T06:43:15;6.55;;;5.95;;
8610;SDS011;4343;53.648;10.098;2023-08-30T06:45:41;5.70;;;5.30;;
8610;SDS011;4343;53.648;10.098;2023-08-30T06:48:08;5.78;;;5.28;;
8610;SDS011;4343;53.648;10.098;2023-08-30T06:50:34;5.30;;;4.90;;
8610;SDS011;4343;53.648;10.098;2023-08-30T06:53:00;5.15;;;4.85;;
8610;SDS011;4343;53.648;10.098;2023-08-30T06:55:26;4.75;;;4.45;;
8610;SDS011;4343;53.648;10.098;2023-08-30T06:57:52;4.57;;;4.18;;
8610;SDS011;4343;53.648;10.098;2023-08-30T07:00:17;4.60;;;4.30;;
8610;SDS011;4343;53.648;10.098;2023-08-30T07:02:43;4.60;;;4.30;;
8610;SDS011;4343;53.648;10.098;2023-08-30T07:05:11;4.22;;;4.03;;
8610;SDS011;4343;53.648;10.098;2023-08-30T07:07:37;5.00;;;4.70;;
8610;SDS011;4343;53.648;10.098;2023-08-30T07:10:03;4.75;;;3.80;;
8610;SDS011;4343;53.648;10.098;2023-08-30T07:12:29;4.90;;;4.57;;
8610;SDS011;4343;53.648;10.098;2023-08-30T07:14:55;4.68;;;4.07;;
8610;SDS011;4343;53.648;10.098;2023-08-30T07:17:20;4.25;;;4.03;;
8610;SDS011;4343;53.648;10.098;2023-08-30T07:19:46;4.57;;;4.18;;
8610;SDS011;4343;53.648;10.098;2023-08-30T07:22:12;4.10;;;3.90;;
8610;SDS011;4343;53.648;10.098;2023-08-30T07:24:38;3.90;;;3.60;;
8610;SDS011;4343;53.648;10.098;2023-08-30T07:27:04;5.38;;;4.82;;
8610;SDS011;4343;53.648;10.098;2023-08-30T07:29:30;4.80;;;4.43;;
8610;SDS011;4343;53.648;10.098;2023-08-30T07:31:56;4.28;;;3.97;;
8610;SDS011;4343;53.648;10.098;2023-08-30T07:34:21;5.43;;;4.25;;
8610;SDS011;4343;53.648;10.098;2023-08-30T07:36:47;4.95;;;4.55;;
8610;SDS011;4343;53.648;10.098;2023-08-30T07:39:12;5.20;;;4.47;;
8610;SDS011;4343;53.648;10.098;2023-08-30T07:41:38;4.55;;;4.25;;
8610;SDS011;4343;53.648;10.098;2023-08-30T07:44:04;4.47;;;4.05;;
8610;SDS011;4343;53.648;10.098;2023-08-30T07:46:29;4.22;;;3.90;;
8610;SDS011;4343;53.648;10.098;2023-08-30T07:48:55;4.20;;;4.00;;
8610;SDS011;4343;53.648;10.098;2023-08-30T07:51:21;4.72;;;4.38;;
8610;SDS011;4343;53.648;10.098;2023-08-30T07:53:47;4.13;;;3.83;;
8610;SDS011;4343;53.648;10.098;2023-08-30T07:56:13;4.07;;;3.70;;
8610;SDS011;4343;53.648;10.098;2023-08-30T07:58:40;4.55;;;4.15;;
8610;SDS011;4343;53.648;10.098;2023-08-30T08:01:07;5.13;;;4.63;;
8610;SDS011;4343;53.648;10.098;2023-08-30T08:03:33;5.00;;;4.50;;
8610;SDS011;4343;53.648;10.098;2023-08-30T08:05:59;4.10;;;3.90;;
8610;SDS011;4343;53.648;10.098;2023-08-30T08:08:25;4.70;;;4.35;;
8610;SDS011;4343;53.648;10.098;2023-08-30T08:10:50;5.53;;;3.72;;
8610;SDS011;4343;53.648;10.098;2023-08-30T08:13:16;4.57;;;4.18;;
8610;SDS011;4343;53.648;10.098;2023-08-30T08:15:41;4.32;;;3.97;;
8610;SDS011;4343;53.648;10.098;2023-08-30T08:18:09;4.05;;;3.85;;
8610;SDS011;4343;53.648;10.098;2023-08-30T08:20:34;4.50;;;4.18;;
8610;SDS011;4343;53.648;10.098;2023-08-30T08:23:01;4.78;;;4.30;;
8610;SDS011;4343;53.648;10.098;2023-08-30T08:25:27;5.03;;;4.60;;
8610;SDS011;4343;53.648;10.098;2023-08-30T08:27:53;3.78;;;3.58;;
8610;SDS011;4343;53.648;10.098;2023-08-30T08:30:18;4.00;;;3.70;;
8610;SDS011;4343;53.648;10.098;2023-08-30T08:32:45;3.95;;;3.70;;
8610;SDS011;4343;53.648;10.098;2023-08-30T08:35:12;4.18;;;3.65;;
8610;SDS011;4343;53.648;10.098;2023-08-30T08:37:38;3.65;;;3.40;;
8610;SDS011;4343;53.648;10.098;2023-08-30T08:40:03;4.30;;;3.70;;
8610;SDS011;4343;53.648;10.098;2023-08-30T08:42:33;4.35;;;4.05;;
8610;SDS011;4343;53.648;10.098;2023-08-30T08:45:00;5.22;;;4.30;;
8610;SDS011;4343;53.648;10.098;2023-08-30T08:47:27;4.53;;;4.32;;
8610;SDS011;4343;53.648;10.098;2023-08-30T08:49:55;5.25;;;4.72;;
8610;SDS011;4343;53.648;10.098;2023-08-30T08:52:21;4.88;;;4.47;;
8610;SDS011;4343;53.648;10.098;2023-08-30T08:54:48;4.68;;;4.38;;
8610;SDS011;4343;53.648;10.098;2023-08-30T08:57:14;4.70;;;4.10;;
8610;SDS011;4343;53.648;10.098;2023-08-30T08:59:39;3.72;;;3.53;;
8610;SDS011;4343;53.648;10.098;2023-08-30T09:02:05;4.57;;;4.10;;
8610;SDS011;4343;53.648;10.098;2023-08-30T09:04:31;4.57;;;3.60;;
8610;SDS011;4343;53.648;10.098;2023-08-30T09:07:00;4.40;;;4.10;;
8610;SDS011;4343;53.648;10.098;2023-08-30T09:09:26;4.68;;;4.28;;
8610;SDS011;4343;53.648;10.098;2023-08-30T09:11:52;4.75;;;4.40;;
8610;SDS011;4343;53.648;10.098;2023-08-30T09:14:18;4.05;;;3.78;;
8610;SDS011;4343;53.648;10.098;2023-08-30T09:16:56;4.47;;;4.18;;
8610;SDS011;4343;53.648;10.098;2023-08-30T09:19:23;4.45;;;4.15;;
8610;SDS011;4343;53.648;10.098;2023-08-30T09:21:53;5.40;;;4.72;;
8610;SDS011;4343;53.648;10.098;2023-08-30T09:24:19;4.97;;;4.60;;
8610;SDS011;4343;53.648;10.098;2023-08-30T09:26:51;5.13;;;4.82;;
8610;SDS011;4343;53.648;10.098;2023-08-30T09:29:18;4.80;;;4.50;;
8610;SDS011;4343;53.648;10.098;2023-08-30T09:31:45;3.75;;;3.53;;
8610;SDS011;4343;53.648;10.098;2023-08-30T09:34:10;4.03;;;3.78;;
8610;SDS011;4343;53.648;10.098;2023-08-30T09:36:40;3.70;;;3.40;;
8610;SDS011;4343;53.648;10.098;2023-08-30T09:39:07;3.85;;;3.65;;
8610;SDS011;4343;53.648;10.098;2023-08-30T09:41:34;3.50;;;3.30;;
8610;SDS011;4343;53.648;10.098;2023-08-30T09:44:06;3.40;;;3.10;;
8610;SDS011;4343;53.648;10.098;2023-08-30T09:46:32;3.38;;;3.13;;
8610;SDS011;4343;53.648;10.098;2023-08-30T09:49:05;4.03;;;3.72;;
8610;SDS011;4343;53.648;10.098;2023-08-30T09:51:32;3.95;;;3.75;;
8610;SDS011;4343;53.648;10.098;2023-08-30T09:53:59;3.65;;;3.35;;
8610;SDS011;4343;53.648;10.098;2023-08-30T09:56:29;3.70;;;3.28;;
8610;SDS011;4343;53.648;10.098;2023-08-30T09:58:55;3.03;;;2.83;;
8610;SDS011;4343;53.648;10.098;2023-08-30T10:01:24;3.88;;;3.47;;
8610;SDS011;4343;53.648;10.098;2023-08-30T10:03:51;3.90;;;3.47;;
8610;SDS011;4343;53.648;10.098;2023-08-30T10:06:18;2.83;;;2.72;;
8610;SDS011;4343;53.648;10.098;2023-08-30T10:08:45;3.10;;;2.83;;
8610;SDS011;4343;53.648;10.098;2023-08-30T10:11:13;3.97;;;3.22;;
8610;SDS011;4343;53.648;10.098;2023-08-30T10:13:39;2.33;;;2.22;;
8610;SDS011;4343;53.648;10.098;2023-08-30T10:16:08;2.83;;;2.72;;
8610;SDS011;4343;53.648;10.098;2023-08-30T10:18:40;3.45;;;3.13;;
8610;SDS011;4343;53.648;10.098;2023-08-30T10:21:08;3.92;;;2.80;;
8610;SDS011;4343;53.648;10.098;2023-08-30T10:23:37;3.53;;;3.20;;
8610;SDS011;4343;53.648;10.098;2023-08-30T10:26:04;3.30;;;3.10;;
8610;SDS011;4343;53.648;10.098;2023-08-30T10:28:31;3.97;;;3.67;;
8610;SDS011;4343;53.648;10.098;2023-08-30T10:30:57;3.60;;;3.30;;
8610;SDS011;4343;53.648;10.098;2023-08-30T10:33:23;3.75;;;3.45;;
8610;SDS011;4343;53.648;10.098;2023-08-30T10:35:50;5.82;;;3.33;;
8610;SDS011;4343;53.648;10.098;2023-08-30T10:38:26;3.33;;;2.90;;
8610;SDS011;4343;53.648;10.098;2023-08-30T10:40:53;3.30;;;3.10;;
8610;SDS011;4343;53.648;10.098;2023-08-30T10:43:28;2.95;;;2.83;;
8610;SDS011;4343;53.648;10.098;2023-08-30T10:46:02;3.40;;;3.03;;
8610;SDS011;4343;53.648;10.098;2023-08-30T10:48:35;3.22;;;3.03;;
8610;SDS011;4343;53.648;10.098;2023-08-30T10:51:01;3.30;;;3.00;;
8610;SDS011;4343;53.648;10.098;2023-08-30T10:53:29;4.15;;;3.25;;
8610;SDS011;4343;53.648;10.098;2023-08-30T10:56:10;4.45;;;2.92;;
8610;SDS011;4343;53.648;10.098;2023-08-30T10:58:42;2.70;;;2.60;;
8610;SDS011;4343;53.648;10.098;2023-08-30T11:01:09;2.78;;;2.58;;
8610;SDS011;4343;53.648;10.098;2023-08-30T11:03:37;2.50;;;2.30;;
8610;SDS011;4343;53.648;10.098;2023-08-30T11:06:04;2.80;;;2.60;;
8610;SDS011;4343;53.648;10.098;2023-08-30T11:08:29;2.40;;;2.30;;
8610;SDS011;4343;53.648;10.098;2023-08-30T11:11:05;4.72;;;2.80;;
8610;SDS011;4343;53.648;10.098;2023-08-30T11:13:32;4.10;;;2.90;;
8610;SDS011;4343;53.648;10.098;2023-08-30T11:16:01;2.67;;;2.58;;
8610;SDS011;4343;53.648;10.098;2023-08-30T11:18:29;2.72;;;2.60;;
8610;SDS011;4343;53.648;10.098;2023-08-30T11:20:58;2.60;;;2.40;;
8610;SDS011;4343;53.648;10.098;2023-08-30T11:23:26;3.00;;;2.75;;
8610;SDS011;4343;53.648;10.098;2023-08-30T11:25:51;2.83;;;2.40;;
8610;SDS011;4343;53.648;10.098;2023-08-30T11:28:21;2.38;;;2.22;;
8610;SDS011;4343;53.648;10.098;2023-08-30T11:30:52;3.10;;;2.80;;
8610;SDS011;4343;53.648;10.098;2023-08-30T11:33:19;2.78;;;2.58;;
8610;SDS011;4343;53.648;10.098;2023-08-30T11:35:44;2.90;;;2.70;;
8610;SDS011;4343;53.648;10.098;2023-08-30T11:38:10;2.70;;;2.60;;
8610;SDS011;4343;53.648;10.098;2023-08-30T11:40:38;4.28;;;2.90;;
8610;SDS011;4343;53.648;10.098;2023-08-30T11:43:03;3.13;;;2.88;;
8610;SDS011;4343;53.648;10.098;2023-08-30T11:45:32;3.08;;;2.90;;
8610;SDS011;4343;53.648;10.098;2023-08-30T11:48:00;2.75;;;2.53;;
8610;SDS011;4343;53.648;10.098;2023-08-30T11:50:27;2.63;;;2.42;;
8610;SDS011;4343;53.648;10.098;2023-08-30T11:52:53;2.80;;;2.58;;
8610;SDS011;4343;53.648;10.098;2023-08-30T11:55:20;2.20;;;2.10;;
8610;SDS011;4343;53.648;10.098;2023-08-30T11:57:48;2.85;;;2.38;;
8610;SDS011;4343;53.648;10.098;2023-08-30T12:00:17;3.33;;;3.08;;
8610;SDS011;4343;53.648;10.098;2023-08-30T12:02:45;2.45;;;2.35;;
8610;SDS011;4343;53.648;10.098;2023-08-30T12:05:12;4.95;;;2.53;;
8610;SDS011;4343;53.648;10.098;2023-08-30T12:07:38;4.40;;;3.00;;
8610;SDS011;4343;53.648;10.098;2023-08-30T12:10:09;2.47;;;2.38;;
8610;SDS011;4343;53.648;10.098;2023-08-30T12:12:35;3.78;;;3.00;;
8610;SDS011;4343;53.648;10.098;2023-08-30T12:15:02;2.92;;;2.83;;
8610;SDS011;4343;53.648;10.098;2023-08-30T12:17:36;2.75;;;2.55;;
8610;SDS011;4343;53.648;10.098;2023-08-30T12:20:02;2.97;;;2.80;;
8610;SDS011;4343;53.648;10.098;2023-08-30T12:22:37;2.63;;;2.50;;
8610;SDS011;4343;53.648;10.098;2023-08-30T12:25:19;2.40;;;2.30;;
8610;SDS011;4343;53.648;10.098;2023-08-30T12:27:46;3.03;;;2.83;;
8610;SDS011;4343;53.648;10.098;2023-08-30T12:30:13;2.70;;;2.60;;
8610;SDS011;4343;53.648;10.098;2023-08-30T12:32:39;3.28;;;3.08;;
8610;SDS011;4343;53.648;10.098;2023-08-30T12:35:05;3.10;;;2.90;;
8610;SDS011;4343;53.648;10.098;2023-08-30T12:37:31;3.00;;;2.90;;
8610;SDS011;4343;53.648;10.098;2023-08-30T12:39:56;3.20;;;2.90;;
8610;SDS011;4343;53.648;10.098;2023-08-30T12:42:22;2.90;;;2.70;;
8610;SDS011;4343;53.648;10.098;2023-08-30T12:44:47;2.70;;;2.50;;
8610;SDS011;4343;53.648;10.098;2023-08-30T12:47:13;3.20;;;2.90;;
8610;SDS011;4343;53.648;10.098;2023-08-30T12:49:39;3.28;;;3.08;;
8610;SDS011;4343;53.648;10.098;2023-08-30T12:52:05;5.28;;;3.25;;
8610;SDS011;4343;53.648;10.098;2023-08-30T12:54:31;3.05;;;2.85;;
8610;SDS011;4343;53.648;10.098;2023-08-30T12:56:57;3.75;;;3.25;;
8610;SDS011;4343;53.648;10.098;2023-08-30T12:59:22;2.92;;;2.83;;
8610;SDS011;4343;53.648;10.098;2023-08-30T13:01:48;3.05;;;2.85;;
8610;SDS011;4343;53.648;10.098;2023-08-30T13:04:13;3.80;;;3.50;;
8610;SDS011;4343;53.648;10.098;2023-08-30T13:06:39;3.03;;;2.83;;
8610;SDS011;4343;53.648;10.098;2023-08-30T13:09:04;2.90;;;2.80;;
8610;SDS011;4343;53.648;10.098;2023-08-30T13:11:30;3.28;;;3.08;;
8610;SDS011;4343;53.648;10.098;2023-08-30T13:13:57;3.33;;;3.13;;
8610;SDS011;4343;53.648;10.098;2023-08-30T13:16:23;3.42;;;3.22;;
8610;SDS011;4343;53.648;10.098;2023-08-30T13:18:49;4.15;;;3.17;;
8610;SDS011;4343;53.648;10.098;2023-08-30T13:21:15;3.42;;;3.22;;
8610;SDS011;4343;53.648;10.098;2023-08-30T13:23:58;3.33;;;3.13;;
8610;SDS011;4343;53.648;10.098;2023-08-30T13:26:23;3.17;;;2.97;;
8610;SDS011;4343;53.648;10.098;2023-08-30T13:28:49;3.30;;;3.10;;
8610;SDS011;4343;53.648;10.098;2023-08-30T13:31:14;2.72;;;2.63;;
8610;SDS011;4343;53.648;10.098;2023-08-30T13:33:40;2.70;;;2.60;;
8610;SDS011;4343;53.648;10.098;2023-08-30T13:36:06;3.75;;;2.78;;
8610;SDS011;4343;53.648;10.098;2023-08-30T13:38:31;2.80;;;2.70;;
8610;SDS011;4343;53.648;10.098;2023-08-30T13:41:00;2.72;;;2.58;;
8610;SDS011;4343;53.648;10.098;2023-08-30T13:43:26;3.20;;;3.08;;
8610;SDS011;4343;53.648;10.098;2023-08-30T13:46:00;3.65;;;3.45;;
8610;SDS011;4343;53.648;10.098;2023-08-30T13:48:26;2.97;;;2.88;;
8610;SDS011;4343;53.648;10.098;2023-08-30T13:50:51;4.70;;;3.20;;
8610;SDS011;4343;53.648;10.098;2023-08-30T13:53:17;3.13;;;2.85;;
8610;SDS011;4343;53.648;10.098;2023-08-30T13:55:46;3.00;;;2.80;;
8610;SDS011;4343;53.648;10.098;2023-08-30T13:58:14;3.17;;;2.90;;
8610;SDS011;4343;53.648;10.098;2023-08-30T14:00:40;3.40;;;3.20;;
8610;SDS011;4343;53.648;10.098;2023-08-30T14:03:06;3.55;;;3.17;;
8610;SDS011;4343;53.648;10.098;2023-08-30T14:05:33;3.13;;;2.92;;
8610;SDS011;4343;53.648;10.098;2023-08-30T14:07:58;3.35;;;2.97;;
8610;SDS011;4343;53.648;10.098;2023-08-30T14:10:24;3.40;;;3.20;;
8610;SDS011;4343;53.648;10.098;2023-08-30T14:12:49;3.47;;;3.17;;
8610;SDS011;4343;53.648;10.098;2023-08-30T14:15:15;3.10;;;3.00;;
8610;SDS011;4343;53.648;10.098;2023-08-30T14:17:41;3.45;;;3.15;;
8610;SDS011;4343;53.648;10.098;2023-08-30T14:20:07;5.05;;;2.97;;
8610;SDS011;4343;53.648;10.098;2023-08-30T14:22:33;2.88;;;2.67;;
8610;SDS011;4343;53.648;10.098;2023-08-30T14:24:58;3.03;;;2.83;;
8610;SDS011;4343;53.648;10.098;2023-08-30T14:27:24;3.08;;;2.95;;
8610;SDS011;4343;53.648;10.098;2023-08-30T14:29:49;3.05;;;2.85;;
8610;SDS011;4343;53.648;10.098;2023-08-30T14:32:15;3.10;;;2.90;;
8610;SDS011;4343;53.648;10.098;2023-08-30T14:34:40;2.88;;;2.78;;
8610;SDS011;4343;53.648;10.098;2023-08-30T14:37:06;2.60;;;2.50;;
8610;SDS011;4343;53.648;10.098;2023-08-30T14:39:31;3.50;;;3.20;;
8610;SDS011;4343;53.648;10.098;2023-08-30T14:41:57;3.17;;;2.92;;
8610;SDS011;4343;53.648;10.098;2023-08-30T14:44:22;4.10;;;2.95;;
8610;SDS011;4343;53.648;10.098;2023-08-30T14:46:50;2.90;;;2.70;;
8610;SDS011;4343;53.648;10.098;2023-08-30T14:49:16;6.07;;;2.92;;
8610;SDS011;4343;53.648;10.098;2023-08-30T14:51:42;3.42;;;3.22;;
8610;SDS011;4343;53.648;10.098;2023-08-30T14:54:07;2.75;;;2.65;;
8610;SDS011;4343;53.648;10.098;2023-08-30T14:56:33;2.70;;;2.60;;
8610;SDS011;4343;53.648;10.098;2023-08-30T14:58:58;2.70;;;2.60;;